METAR Data
IDs: Format: Raw Decoded Include TAF

Data at: 0639 UTC 03 Aug 2021

KSBP 030627Z AUTO 32007KT 9SM FEW008 16/13 A3004 RMK AO2 T01560133 $
KSBP 030556Z AUTO 32007KT 10SM CLR 16/13 A3004 RMK AO2 SLP168 T01560133 10250 20156 50004 $
KSBP 030456Z AUTO 31008KT 10SM CLR 16/13 A3005 RMK AO2 SLP175 T01560128 $
KSBP 030356Z AUTO 31010KT 10SM CLR 16/13 A3004 RMK AO2 SLP171 T01610133 $
KSBP 030256Z 31015KT 10SM CLR 18/13 A3002 RMK AO2 SLP165 T01780128 53003 $
KSBP 030156Z 31012KT 10SM CLR 21/13 A3002 RMK AO2 SLP163 T02110128 $
KSBP 030056Z 31016KT 10SM CLR 23/13 A3001 RMK AO2 SLP162 T02280133 $
KSBP 022356Z 30015KT 10SM CLR 24/13 A3001 RMK AO2 SLP162 T02390133 10267 20233 58010 $
KSBP 022256Z 31018KT 10SM CLR 24/13 A3002 RMK AO2 SLP164 T02440133 $
KSBP 022156Z 31017KT 10SM CLR 26/13 A3004 RMK AO2 SLP169 T02560133 $
KSBP 022056Z 31018KT 10SM CLR 26/13 A3004 RMK AO2 SLP171 T02610133 58017 $
KSBP 021956Z 31013KT 10SM CLR 26/13 A3006 RMK AO2 SLP176 T02610133 $
KSBP 021856Z 30014KT 10SM CLR 25/13 A3008 RMK AO2 SLP184 T02500128 $
KSBP 021756Z 30010KT 10SM CLR 24/12 A3009 RMK AO2 SLP188 T02390122 10239 20117 58003 $
KSBP 021656Z 30010KT 10SM CLR 22/12 A3010 RMK AO2 SLP189 T02170122 $
KSBP 021556Z VRB05KT 10SM CLR 19/13 A3011 RMK AO2 SLP193 T01890128 $
KSBP 021456Z 32005KT 10SM CLR 17/12 A3010 RMK AO2 SLP192 T01720122 51013 $
KSBP 021356Z 00000KT 10SM CLR 13/10 A3009 RMK AO2 SLP189 T01280100 $
KSBP 021256Z AUTO 00000KT 10SM CLR 12/09 A3008 RMK AO2 SLP185 T01220094 $
KSBP 021156Z AUTO 31004KT 10SM CLR 14/11 A3006 RMK AO2 SLP179 T01390111 10167 20139 56001 $
KSBP 021056Z AUTO 34005KT 10SM CLR 16/12 A3007 RMK AO2 SLP179 T01560117 $
KSBP 020956Z AUTO 34006KT 10SM CLR 16/12 A3006 RMK AO2 SLP176 T01560117 $
KSBP 020856Z AUTO 33007KT 10SM CLR 16/12 A3007 RMK AO2 SLP179 T01560117 58006 $
KSBP 020756Z AUTO 33006KT 10SM CLR 16/12 A3007 RMK AO2 SLP181 T01560117 402610117 $
KSBP 020656Z AUTO 33006KT 10SM CLR 16/12 A3008 RMK AO2 SLP185 T01610117 $
KSBP 020556Z AUTO 33006KT 10SM CLR 17/12 A3009 RMK AO2 SLP186 T01670122 10239 20167 50008 $
KSBP 020456Z AUTO 32009KT 10SM CLR 17/12 A3009 RMK AO2 SLP189 T01670122 $
KSBP 020356Z AUTO 32010KT 10SM CLR 18/12 A3008 RMK AO2 SLP184 T01780117 $
KSBP 020256Z AUTO 31012KT 10SM CLR 19/12 A3006 RMK AO2 SLP178 T01890117 53004 $
KSBP 020156Z AUTO 31014KT 10SM CLR 21/12 A3005 RMK AO2 SLP174 T02060117 $
KSBP 020056Z 31014KT 10SM CLR 23/12 A3005 RMK AO2 SLP174 T02280122 $
KSBP 012356Z 31015KT 10SM CLR 24/12 A3005 RMK AO2 SLP174 T02390122 10261 20222 56008 $
KSBP 012256Z 31015KT 10SM CLR 24/13 A3006 RMK AO2 SLP177 T02440128 $
KSBP 012156Z 30012KT 10SM CLR 26/13 A3006 RMK AO2 SLP178 T02560133 $
KSBP 012056Z 29011KT 10SM CLR 25/13 A3008 RMK AO2 SLP182 T02500133 56004 $
KSBP 011956Z 30011KT 10SM CLR 24/13 A3008 RMK AO2 SLP182 T02440133 $
KSBP 011856Z 30006KT 10SM CLR 24/13 A3008 RMK AO2 SLP185 T02440128 $